createdAt,value
2018-09-22T00:01:57.812Z,55.5
2018-09-22T00:12:00.706Z,55.6
2018-09-22T00:22:02.102Z,55.5
2018-09-22T00:32:03.900Z,55.7
2018-09-22T00:42:05.960Z,55.5
2018-09-22T00:52:07.873Z,55.7
2018-09-22T01:02:10.230Z,55.8
2018-09-22T01:12:12.092Z,55.8
2018-09-22T01:22:14.170Z,55.8
2018-09-22T01:32:16.021Z,55.9
2018-09-22T01:42:17.679Z,55.9
2018-09-22T01:52:19.480Z,55.9
2018-09-22T02:02:21.162Z,55.9
2018-09-22T02:12:23.252Z,55.9
2018-09-22T02:22:25.087Z,55.9
2018-09-22T02:32:27.215Z,55.9
2018-09-22T02:42:29.018Z,56
2018-09-22T02:52:30.940Z,56.1
2018-09-22T03:02:32.551Z,56.1
2018-09-22T03:12:34.355Z,56.3
2018-09-22T03:22:36.004Z,56.2
2018-09-22T03:32:38.195Z,56.3
2018-09-22T03:42:40.086Z,56.4
2018-09-22T03:52:42.167Z,56.6
2018-09-22T04:02:44.326Z,56.7
2018-09-22T04:12:45.113Z,57
2018-09-22T04:22:46.823Z,57
2018-09-22T04:32:48.606Z,57.2
2018-09-22T04:42:50.516Z,57.2
2018-09-22T04:52:52.320Z,57.8
2018-09-22T05:02:54.313Z,57.7
2018-09-22T05:12:56.407Z,57.8
2018-09-22T05:22:57.934Z,57.3
2018-09-22T05:32:59.613Z,55.5
2018-09-22T05:43:01.238Z,54.6
2018-09-22T05:53:03.033Z,53.8
2018-09-22T06:03:04.823Z,53.2
2018-09-22T06:13:06.950Z,52.9
2018-09-22T06:23:09.064Z,52.6
2018-09-22T06:33:10.893Z,52.5
2018-09-22T06:43:13.129Z,52.2
2018-09-22T06:53:15.094Z,52
2018-09-22T07:03:16.673Z,52.3
2018-09-22T07:13:18.363Z,51.8
2018-09-22T07:23:20.202Z,52.2
2018-09-22T07:33:21.829Z,52
2018-09-22T07:43:24.014Z,51.7
2018-09-22T07:53:25.833Z,52.1
2018-09-22T08:03:27.484Z,51.9
2018-09-22T08:13:30.680Z,51.9
2018-09-22T08:23:32.925Z,51.8
2018-09-22T08:33:34.504Z,51.7
2018-09-22T08:43:36.572Z,51.4
2018-09-22T08:53:38.434Z,51.3
2018-09-22T09:03:40.340Z,51
2018-09-22T09:13:42.340Z,51
2018-09-22T09:23:43.988Z,50.8
2018-09-22T09:33:46.518Z,50.5
2018-09-22T09:43:48.723Z,50.6
2018-09-22T09:53:50.494Z,50.8
2018-09-22T10:03:52.158Z,50.9
2018-09-22T10:13:53.961Z,51.1
2018-09-22T10:23:55.374Z,51.4
2018-09-22T10:33:57.236Z,51.7
2018-09-22T10:43:58.974Z,52
2018-09-22T10:54:00.949Z,52
2018-09-22T11:04:03.255Z,52
2018-09-22T11:14:04.753Z,52.2
2018-09-22T11:24:24.800Z,52.2
2018-09-22T11:34:26.723Z,52.4
2018-09-22T11:44:28.656Z,52.4
2018-09-22T11:54:30.143Z,52.5
2018-09-22T12:04:31.846Z,52.5
2018-09-22T12:14:33.457Z,52.7
2018-09-22T12:24:36.368Z,52.7
2018-09-22T12:34:38.371Z,52.9
2018-09-22T12:44:40.091Z,53.2
2018-09-22T12:54:41.622Z,53.3
2018-09-22T13:04:43.595Z,53.3
2018-09-22T13:14:45.519Z,53.7
2018-09-22T13:24:47.263Z,54
2018-09-22T13:34:49.391Z,54
2018-09-22T13:44:51.063Z,51
2018-09-22T13:54:52.744Z,48.9
2018-09-22T14:04:54.529Z,47.9
2018-09-22T14:14:56.051Z,47.8
2018-09-22T14:24:58.005Z,47
2018-09-22T14:34:59.959Z,46.7
2018-09-22T14:45:01.795Z,47.3
2018-09-22T14:55:03.431Z,47.6
2018-09-22T15:05:05.279Z,48.3
2018-09-22T15:15:07.089Z,48.7
2018-09-22T15:25:09.650Z,49.2
2018-09-22T15:35:11.315Z,49.5
2018-09-22T15:45:13.299Z,49.9
2018-09-22T15:55:15.187Z,50.3
2018-09-22T16:05:17.616Z,50.4
2018-09-22T16:15:19.408Z,50.6
2018-09-22T16:25:21.277Z,50.5
2018-09-22T16:35:23.330Z,50.7
2018-09-22T16:45:25.433Z,50.5
2018-09-22T16:55:27.442Z,50.4
2018-09-22T17:05:29.483Z,51.5
2018-09-22T17:15:31.169Z,51.7
2018-09-22T17:25:33.377Z,52
2018-09-22T17:35:35.072Z,52
2018-09-22T17:45:36.910Z,52.1
2018-09-22T17:55:38.727Z,52.2
2018-09-22T18:05:41.156Z,52.1
2018-09-22T18:15:43.270Z,52.4
2018-09-22T18:25:45.537Z,52.4
2018-09-22T18:35:47.619Z,52.7
2018-09-22T18:45:49.578Z,52.7
2018-09-22T18:55:51.342Z,53.1
2018-09-22T19:05:53.116Z,52.9
2018-09-22T19:15:55.373Z,53.3
2018-09-22T19:25:57.699Z,53.4
2018-09-22T19:35:59.482Z,53.4
2018-09-22T19:46:01.338Z,53.5
2018-09-22T19:56:03.306Z,53.6
2018-09-22T20:06:05.082Z,53.7
2018-09-22T20:16:06.734Z,53.7
2018-09-22T20:26:08.780Z,53.8
2018-09-22T20:36:10.382Z,54
2018-09-22T20:46:12.434Z,54
2018-09-22T20:56:14.355Z,54
2018-09-22T21:06:16.164Z,54.2
2018-09-22T21:16:18.136Z,54.3
2018-09-22T21:26:19.631Z,54.4
2018-09-22T21:36:21.570Z,54.5
2018-09-22T21:46:23.303Z,55
2018-09-22T21:56:24.696Z,55.3
2018-09-22T22:06:26.521Z,55.5
2018-09-22T22:16:28.176Z,55.5
2018-09-22T22:26:30.467Z,55.7
2018-09-22T22:36:32.527Z,55.7
2018-09-22T22:46:34.822Z,55.7
2018-09-22T22:56:36.244Z,55.8
2018-09-22T23:06:38.161Z,56
2018-09-22T23:16:40.384Z,56
2018-09-22T23:26:41.702Z,56.2
2018-09-22T23:36:43.573Z,56.3
2018-09-22T23:46:45.761Z,56.1
2018-09-22T23:56:47.709Z,56.2
